Leonardo Rodrigues

Recruteur en chef - Internacional
21 Nov 2027
Dimanche
Processus

Personnalité

Adaptabilité (14) Ambition (19) Controverse (1) Loyauté (8) Pression (6) Professionnalisme (10) Sportivité (4) Tempérament (5)

Profil

Style d'entraînement Démocratique
Diplôme Continental B
Détermination 8
Gestion des joueurs 7
Motivation 7
Discipline 11
Satisfaction professionnelle
83%
Fatigue
0%
Rôle Recruteur en chef
Salaire 24.4K p/s
Contrat 14.03.2030

Performance

Comportement Bon
Efficacité de l'entraînement
48%
Développement des joueurs
55%
Prévention des blessures
45%
Mise en place tactique
50%

Événements récents

A évalué un joueur maintenant
A participé à une réunion de recrutement maintenant
A recommandé une cible de transfert maintenant
A participé à une réunion de recrutement maintenant
A évalué un joueur maintenant
A évalué un joueur 7j
A évalué un joueur 7j
A évalué un joueur 7j

Suivi en cours

250
Joueur Club Statut Capacité Confiance Observé Dernière observation Dernier vote
Nobel Mendy Hull City Actif 130 / 144 40% 1 20.11.2027 -
Kauã Moraes Flamengo Actif 120 / 128 40% 1 20.11.2027 -
Alexsander Atlético Mineiro Actif 139 / 131 40% 2 18.11.2027 -
Álex Valle Boca Juniors Actif 132 / 142 40% 2 18.11.2027 -
Lucas Sanabria LA Galaxy Actif 131 / 134 40% 3 17.11.2027 -
Honest Ahanor Atalanta Actif 119 / 140 40% 1 17.11.2027 -
Brooke Norton-Cuffy Hull City Actif 153 / 147 40% 6 15.11.2027 -
Lamare Bogarde Reading Actif 140 / 138 40% 4 15.11.2027 -
Breno Bidon Corinthians Actif 128 / 132 40% 2 13.11.2027 -
Gonçalo Nogueira Vitoria Guimaraes Actif 128 / 127 40% 1 12.11.2027 -
Ignacio Perruzzi San Lorenzo Actif 124 / 128 40% 1 12.11.2027 -
Alex Scott Bournemouth Actif 156 / 159 40% 5 11.11.2027 -
Lautaro Di Lollo Boca Juniors Actif 122 / 136 40% 3 11.11.2027 -
Jack Hinshelwood Watford Actif 144 / 157 40% 3 09.11.2027 -
Michael Kayode Brentford Actif 159 / 153 40% 4 09.11.2027 -
Nicolás Romero Minnesota United FC Actif 127 / 131 40% 3 08.11.2027 -
Samuele Angori Red Bull Salzburg Actif 128 / 139 40% 1 08.11.2027 -
Andrey Santos Bolton Wanderers Actif 138 / 146 40% 1 06.11.2027 -
Ayden Heaven Portsmouth Actif 151 / 149 40% 1 05.11.2027 -
Noah Sadiki Sunderland Actif 165 / 152 40% 1 05.11.2027 -
Toby Collyer West Bromwich Albion Actif 122 / 139 40% 2 31.10.2027 -
Ronnie Edwards Queens Park Rangers Actif 122 / 133 40% 2 31.10.2027 -
Levi Colwill Chelsea Actif 170 / 163 40% 4 28.10.2027 -
Yehor Yarmoliuk Brentford Actif 146 / 158 40% 2 27.10.2027 -
Nahuel Herrera Penarol Actif 127 / 129 40% 3 24.10.2027 -
Abdukodir Khusanov Oxford United Actif 155 / 161 40% 3 22.10.2027 -
Ousmane Diomande Nottingham Forest Actif 154 / 162 40% 3 22.10.2027 -
Fredrik Sjøvold Bodo/Glimt Actif 155 / 138 40% 2 20.10.2027 -
Max Johnston Derby County Actif 132 / 136 40% 2 16.10.2027 -
Yasin Ayari Middlesbrough Actif 137 / 149 40% 3 15.10.2027 -
Carlos Baleba Norwich City Actif 144 / 160 40% 1 15.10.2027 -
César Pérez Defensa y Justicia Actif 116 / 126 40% 3 13.10.2027 -
Henrik Falchener Viking Actif 108 / 127 40% 2 11.10.2027 -
Arthur Peixoto Astra Actif 142 / 128 40% 4 10.10.2027 -
Lewis Miley Newcastle United Actif 154 / 154 40% 2 09.10.2027 -
Shea Charles Southampton Actif 148 / 148 40% 2 09.10.2027 -
Nectar Triantis Minnesota United FC Actif 116 / 132 40% 2 06.10.2027 -
Jorrel Hato Chelsea Actif 142 / 158 40% 1 04.10.2027 -
Adam Wharton Crystal Palace Actif 175 / 159 40% 3 30.09.2027 -
Lewis Hall Newcastle United Actif 166 / 154 40% 2 24.09.2027 -
Santiago González Tigre Actif 120 / 129 40% 1 24.09.2027 -
Robert Renan Zenit Actif 114 / 132 40% 3 22.09.2027 -
Cauan Barros Flamengo Actif 119 / 128 40% 3 21.09.2027 -
Roméo Lavia Chelsea Actif 136 / 160 40% 1 20.09.2027 -
Habib Diarra Sunderland Actif 153 / 147 40% 1 16.09.2027 -
Kaiki Cruzeiro Actif 148 / 131 40% 2 14.09.2027 -
Demir Ege Tıknaz Braga Actif 116 / 131 40% 1 12.09.2027 -
Malo Gusto Chelsea Actif 140 / 155 40% 1 11.09.2027 -
Tino Livramento Newcastle United Actif 169 / 164 40% 1 11.09.2027 -
Mateo Mendoza Godoy Cruz Actif 115 / 125 40% 1 10.09.2027 -
Patrick Dorgu Bristol City Actif 162 / 152 40% 1 09.09.2027 -
Agustín Giay Palmeiras Actif 139 / 132 40% 1 09.09.2027 -
Ben Nelson Leicester City Actif 140 / 142 40% 2 06.09.2027 -
Mbekezeli Mbokazi Chicago Fire Actif 110 / 133 40% 1 29.08.2027 -
Juanlu Bournemouth Actif 153 / 152 40% 2 28.08.2027 -
Mamadou Coulibaly Al Jazira Actif 119 / 131 40% 2 27.08.2027 -
Tomás Silva Platense Actif 117 / 126 40% 1 20.08.2027 -
Danilo Veiga Lecce Actif 133 / 129 40% 2 19.08.2027 -
Bjorn Meijer Sampdoria Actif 113 / 126 40% 1 18.08.2027 -
Cesare Casadei Torino Actif 147 / 145 40% 1 17.08.2027 -
Nicolò Bertola Udinese Actif 159 / 144 40% 1 11.08.2027 -
Kevin Paredes Napoli Actif 131 / 132 40% 1 11.08.2027 -
Ollie Scarles West Ham United Actif 149 / 139 40% 2 09.08.2027 -
Junior Tchamadeu Stoke City Actif 146 / 127 40% 1 08.08.2027 -
Harvey Vale Queens Park Rangers Actif 125 / 127 40% 1 04.08.2027 -
Justin Devenny Stoke City Actif 145 / 130 40% 1 12.07.2027 -
Destiny Udogie Tottenham Actif 152 / 157 40% 1 07.07.2027 -
Quinten Timber Crystal Palace Actif 154 / 157 40% 1 29.06.2027 -
Jacob Greaves Ipswich Town Actif 153 / 140 40% 1 29.06.2027 -
Mats Wieffer Brighton Actif 145 / 148 40% 1 02.06.2027 -
Thiago Almada LOSC Lille Négociation 145 / 146 69% 1 01.06.2027 Approuver
Solly March Brighton Actif 167 / 151 40% 3 30.05.2027 -
Samu Aghehowa Nottingham Forest Actif 146 / 146 40% 3 30.05.2027 -
Nicolas Jackson Aston Villa Actif 132 / 153 40% 4 30.05.2027 -
Mohamed-Ali Cho Hull City Actif 124 / 141 40% 2 30.05.2027 -
Dara O'Shea Ipswich Town Actif 124 / 137 40% 1 30.05.2027 -
Jarrad Branthwaite Everton Actif 158 / 158 40% 1 30.05.2027 -
Jørgen Strand Larsen Brighton Actif 153 / 144 40% 2 26.05.2027 -
Tom Fellows Southampton Actif 116 / 136 40% 3 26.05.2027 -
Morgan Gibbs-White Nottingham Forest Actif 170 / 158 40% 4 26.05.2027 -
John McGinn Aston Villa Actif 152 / 142 40% 1 26.05.2027 -
Isaiah Jones Luton Town Actif 117 / 125 40% 1 24.05.2027 -
Gonzalo Fulham Actif 160 / 150 40% 3 22.05.2027 -
Thiago Brentford Actif 164 / 145 40% 1 22.05.2027 -
Georginio Rutter Brighton Actif 145 / 148 40% 4 21.05.2027 -
Igor Jesus Nottingham Forest Actif 158 / 139 40% 5 21.05.2027 -
Yeremy Pino Crystal Palace Actif 158 / 147 40% 2 20.05.2027 -
Chemsdine Talbi Sunderland Actif 150 / 143 40% 1 20.05.2027 -
Giacomo Raspadori Atalanta Actif 150 / 151 40% 3 19.05.2027 -
Carlos Vicente Birmingham Actif 149 / 142 40% 1 19.05.2027 -
Amadou Onana Aston Villa Actif 145 / 158 40% 2 16.05.2027 -
Kevin Fulham Actif 157 / 148 40% 1 16.05.2027 -
Jason Knight Bristol City Actif 115 / 124 40% 1 15.05.2027 -
Joe Gelhardt Hull City Actif 142 / 130 40% 2 14.05.2027 -
Manu Koné AS Roma Actif 178 / 159 40% 2 13.05.2027 -
Florentino Luís Ipswich Town Actif 127 / 140 40% 1 13.05.2027 -
Harry Wilson Leeds United Actif 147 / 146 40% 1 08.05.2027 -
Assane Diao Como Actif 132 / 147 40% 6 07.05.2027 -
Léo Scienza Southampton Actif 140 / 133 40% 1 06.05.2027 -
Óscar Mingueza Crystal Palace Actif 137 / 146 40% 2 05.05.2027 -
Marcus Edwards Burnley Actif 126 / 138 40% 1 05.05.2027 -
Ismaïla Sarr Crystal Palace Actif 144 / 146 40% 1 04.05.2027 -
Adam Randell Bristol City Actif 123 / 132 40% 1 04.05.2027 -
Maxence Lacroix Chelsea Actif 145 / 144 40% 1 04.05.2027 -
Brian Brobbey Sunderland Actif 152 / 146 40% 2 02.05.2027 -
Taty Castellanos West Ham United Actif 148 / 144 40% 3 01.05.2027 -
Tammy Abraham Aston Villa Actif 148 / 139 40% 4 01.05.2027 -
Jarrod Bowen West Ham United Actif 153 / 149 40% 1 30.04.2027 -
Mohammed Kudus Tottenham Actif 144 / 155 40% 2 29.04.2027 -
Gianluca Scamacca Atalanta Actif 138 / 147 40% 5 26.04.2027 -
Kevin Schade Chelsea Actif 143 / 155 40% 1 26.04.2027 -
Gonçalo Ramos AC Milan Actif 157 / 156 40% 2 25.04.2027 -
João Pedro Chelsea Actif 169 / 147 40% 1 25.04.2027 -
Julián Quiñones Al-Qadisiyah Actif 149 / 141 40% 11 23.04.2027 -
Soungoutou Magassa West Ham United Actif 130 / 134 40% 1 23.04.2027 -
Barış Alper Yılmaz Galatasaray Actif 160 / 153 40% 6 21.04.2027 -
Kerem Aktürkoğlu Fenerbahce Actif 129 / 145 40% 6 19.04.2027 -
Fábio Carvalho Brentford Actif 127 / 144 40% 1 17.04.2027 -
Khéphren Thuram Juventus Actif 144 / 160 40% 1 16.04.2027 -
Diego Enríquez Sporting Cristal Actif 137 / 134 40% 1 16.04.2027 -
Joseph Leclercq Tottenham Actif 165 / 158 40% 1 16.04.2027 -
João Félix Dinamo Moscow Actif 165 / 153 40% 5 12.04.2027 -
Eduardo Lozano Botafogo Actif 148 / 146 40% 5 11.04.2027 -
Francesco Pio Esposito Inter Actif 134 / 148 40% 5 11.04.2027 -
Tasos Douvikas Como Actif 160 / 144 40% 5 10.04.2027 -
Santiago Castro AS Roma Actif 128 / 151 40% 4 10.04.2027 -
Yoan Bonny Inter Actif 147 / 144 40% 5 09.04.2027 -
Ollie Watkins Al-Hilal Actif 159 / 145 40% 6 08.04.2027 -
Che Adams Torino Actif 126 / 140 40% 9 08.04.2027 -
Welington Southampton Actif 117 / 123 40% 1 07.04.2027 -
Piotr Zieliński Inter Actif 154 / 149 40% 1 07.04.2027 -
Pedro Flamengo Actif 142 / 145 40% 11 06.04.2027 Observer
Juan Brunetta Chicago Fire Actif 130 / 133 40% 2 05.04.2027 -
Oli McBurnie Hull City Actif 131 / 134 40% 2 02.04.2027 -
Hidemasa Morita Hull City Actif 137 / 145 40% 1 02.04.2027 -
Leon Goretzka Aston Villa Actif 157 / 157 40% 1 31.03.2027 -
Roberto Fernández Braga Actif 124 / 138 40% 7 27.03.2027 -
Marcelo Allende Mamelodi Sundowns Actif 140 / 132 40% 1 27.03.2027 -
Robin Roefs Sunderland Actif 160 / 151 40% 3 26.03.2027 -
João Carvalho Estoril Praia Actif 138 / 128 40% 2 24.03.2027 -
Carlos Forbs Club Brugge Actif 142 / 137 40% 5 24.03.2027 -
Dominic Calvert-Lewin Leeds United Actif 131 / 146 40% 6 21.03.2027 -
Sorriso Famalicao Actif 139 / 127 40% 1 19.03.2027 -
Steven Bergwijn Al-Ittihad Actif 133 / 144 40% 11 18.03.2027 -
André-Franck Zambo Anguissa Napoli Actif 167 / 155 40% 1 17.03.2027 -
Matthew Targett Hull City Actif 136 / 133 40% 1 17.03.2027 -
Mateo Pellegrino Fiorentina Actif 125 / 141 40% 5 12.03.2027 -
Abbosbek Fayzullayev Basaksehir Actif 113 / 136 40% 1 11.03.2027 -
Rodrigo Muniz Fulham Actif 130 / 147 40% 2 10.03.2027 -
Jean-Baptiste Gorby Braga Actif 125 / 132 40% 2 10.03.2027 -
Milan van Ewijk Coventry City Actif 129 / 138 40% 1 10.03.2027 -
Nikola Vlašić Torino Actif 136 / 150 40% 6 05.03.2027 -
João Palhinha Benfica Actif 157 / 157 40% 4 01.03.2027 -
Mathias De Amorim Famalicao Actif 112 / 138 40% 3 01.03.2027 -
Gianluca Prestianni Benfica Actif 151 / 140 40% 2 01.03.2027 -
Santi García Gil Vicente Actif 142 / 136 40% 1 01.03.2027 -
Mojmír Chytil Slavia Prague Actif 121 / 127 40% 3 28.02.2027 -
Franculino Brighton Actif 124 / 134 40% 1 28.02.2027 -
Fredrik Aursnes Benfica Actif 145 / 151 40% 3 27.02.2027 -
Álex Berenguer Lokomotiv Moscow Actif 140 / 155 40% 4 27.02.2027 -
Tariq Lamptey Queens Park Rangers Actif 129 / 134 40% 1 27.02.2027 -
Ángel Correa River Plate Actif 133 / 143 40% 2 25.02.2027 -
Kenny Tete Fulham Actif 148 / 143 40% 2 25.02.2027 -
Jan Bednarek Porto Actif 134 / 142 40% 2 25.02.2027 -
Enzo Barrenechea Benfica Actif 140 / 142 40% 2 19.02.2027 -
Matías Fernández-Pardo Chelsea Actif 129 / 140 40% 1 13.02.2027 -
Nuno Santos Sporting CP Actif 158 / 144 40% 1 11.02.2027 -
Andrea Pinamonti Lazio Actif 129 / 129 40% 2 08.02.2027 -
Carlos Álvarez Club America Actif 129 / 141 40% 1 08.02.2027 -
Pablo Rosario Porto Actif 154 / 140 40% 3 07.02.2027 -
Fran Vieites Walsall Actif 116 / 113 40% 2 07.02.2027 -
Léo Ortiz Flamengo Actif 129 / 143 40% 1 06.02.2027 -
Tomás Araújo Benfica Actif 159 / 148 40% 1 06.02.2027 -
Folarin Balogun Monaco Actif 126 / 133 40% 2 02.02.2027 -
Esteban Lepaul Stade Rennais Actif 148 / 143 40% 2 02.02.2027 -
Geny Sporting CP Actif 141 / 135 40% 1 30.01.2027 -
Amine Gouiri Olympique de Marseille Actif 155 / 136 40% 4 28.01.2027 -
Yoane Wissa Newcastle United Actif 145 / 136 40% 4 27.01.2027 -
Petar Musa FC Dallas Actif 124 / 140 40% 2 27.01.2027 -
Hamza Igamane LOSC Lille Actif 147 / 142 40% 2 25.01.2027 -
Vangelis Pavlidis Porto Actif 156 / 147 40% 1 24.01.2027 -
Alexey Miranchuk Atlanta United FC Actif 127 / 134 40% 4 21.01.2027 -
Nordi Mukiele Sunderland Actif 161 / 150 40% 2 18.01.2027 -
Luís Esteves Atlas Actif 148 / 126 40% 1 18.01.2027 -
André Wolverhampton Actif 133 / 144 40% 1 14.01.2027 -
Memphis Depay Corinthians Actif 145 / 144 40% 1 09.01.2027 -
Mario Dorgeles Braga Actif 133 / 138 40% 1 08.01.2027 -
Matheuzinho Corinthians Actif 126 / 132 40% 1 05.01.2027 -
Pepê Porto Actif 148 / 138 40% 3 31.12.2026 -
Lukas Jensen Millwall Actif 114 / 124 40% 1 26.12.2026 -
Wesley Saïd RC Lens Actif 139 / 136 40% 1 22.12.2026 -
Gustavo Cazonatti Mirassol Actif 110 / 122 51% 1 21.12.2026 -
Dwight McNeil Crystal Palace Actif 127 / 137 40% 1 21.12.2026 -
Leo Ceara Kashima Antlers Actif 157 / 139 40% 2 14.12.2026 -
Yehvann Diouf OGC Nice Actif 147 / 132 40% 1 07.12.2026 -
Anthony Patterson Wrexham Actif 114 / 135 40% 1 07.12.2026 -
Marinho Vitória Actif 139 / 123 51% 1 02.12.2026 -
Odsonne Édouard Olympique Lyonnais Actif 149 / 141 40% 1 29.11.2026 -
Gérson Cruzeiro Actif 152 / 139 40% 1 28.11.2026 -
Heorhii Sudakov Benfica Actif 138 / 152 40% 1 27.11.2026 -
Martinelli Fluminense Actif 133 / 144 40% 2 25.11.2026 -
Dodi Lukébakio Benfica Actif 127 / 139 40% 7 24.11.2026 -
Caio Alexandre Bahia Actif 139 / 140 40% 1 22.11.2026 -
Luis Quintero Torreense Actif 136 / 129 40% 1 18.11.2026 -
Victor Froholdt Porto Actif 136 / 152 40% 1 18.11.2026 -
Richarlison Tottenham Actif 130 / 144 40% 1 16.11.2026 -
Samuel Dahl Benfica Actif 126 / 136 40% 1 15.11.2026 -
Dominic Solanke Tottenham Actif 139 / 153 40% 1 12.11.2026 -
Alejandro Zendejas Club America Actif 134 / 144 40% 1 07.11.2026 -
Mathys Tel Tottenham Actif 152 / 146 40% 1 30.10.2026 -
Alan Varela Porto Actif 128 / 138 40% 2 29.10.2026 -
Agustín Palavecino Cruz Azul Actif 150 / 133 40% 1 28.10.2026 -
Rodrigo Garro Corinthians Actif 132 / 130 40% 1 25.10.2026 -
Alberto Costa Porto Actif 130 / 135 40% 2 24.10.2026 -
Lucas Paquetá Flamengo Actif 143 / 143 40% 1 22.10.2026 -
Noah Okafor Leeds United Actif 136 / 141 40% 2 20.10.2026 -
Eden Lukaku KV Oostende Actif 161 / 162 40% 1 19.10.2026 -
Donyell Malen AS Roma Actif 142 / 147 40% 2 13.10.2026 -
Pau Víctor Braga Actif 120 / 131 40% 1 10.10.2026 -
Michael Cooper Sheffield United Actif 131 / 128 40% 1 10.10.2026 -
Emanuel Emegha Chelsea Actif 122 / 143 40% 1 09.10.2026 -
Eddie Nketiah Crystal Palace Actif 121 / 132 40% 1 09.10.2026 -
Nicolás de la Cruz Flamengo Actif 136 / 132 40% 1 08.10.2026 -
Allan Saint-Maximin Charlotte Football Club Actif 149 / 132 40% 1 08.10.2026 -
Alexis Vega Feyenoord Actif 145 / 138 40% 2 05.10.2026 -
Renan Lodi Atlético Mineiro Actif 140 / 138 40% 1 04.10.2026 -
Erik Lira Cruz Azul Actif 135 / 135 40% 1 04.10.2026 -
Luke Shaw Lokomotiv Moscow Actif 153 / 152 40% 1 04.10.2026 -
Kasper Dolberg Ajax Actif 146 / 134 40% 1 01.10.2026 -
Danilo Botafogo Actif 130 / 141 40% 1 28.09.2026 -
Iván Fresneda Sporting CP Actif 121 / 140 40% 3 27.09.2026 -
Hwang In-Beom Porto Actif 150 / 148 40% 1 27.09.2026 -
Cristian Uribe Monaco Actif 166 / 145 40% 1 27.09.2026 -
Manuel Roffo Hajduk Split Actif 133 / 121 40% 1 21.09.2026 -
Álvaro Martínez Moreirense Actif 105 / 108 40% 1 12.09.2026 -
Nicolò Zaniolo Udinese Actif 124 / 148 40% 2 10.09.2026 -
Matheus Pereira Cruzeiro Actif 145 / 137 40% 1 05.09.2026 -
Mateja Stjepanović Moreirense Actif 115 / 131 40% 1 02.09.2026 -
Andreas Schjelderup Benfica Actif 122 / 143 40% 1 02.09.2026 -
William Gomes Porto Actif 121 / 145 40% 2 28.08.2026 -
Tomáš Chorý Slavia Prague Actif 127 / 144 40% 1 25.08.2026 -
Igor Paixão Olympique de Marseille Actif 134 / 142 40% 1 22.08.2026 -
Ricardo Horta Braga Actif 133 / 145 40% 1 19.08.2026 -
Joshua Zirkzee Manchester United Actif 129 / 140 40% 3 18.08.2026 -
Lisandro Martínez Ajax Actif 151 / 158 40% 1 18.08.2026 -
Ayase Ueda LOSC Lille Actif 150 / 139 40% 1 18.08.2026 -
Luis Suárez Sporting CP Actif 172 / 161 40% 1 08.08.2026 -
Pau Torres Aston Villa Actif 146 / 149 40% 1 07.08.2026 -
Christian Pulisic AC Milan Actif 179 / 162 40% 1 02.08.2026 -
Karim Adeyemi Barcelona Actif 150 / 150 40% 1 01.08.2026 -